createdAt,value
2022-10-08T00:00:58.703Z,3.17
2022-10-08T00:03:32.199Z,2.25
2022-10-08T00:06:03.853Z,2.83
2022-10-08T00:08:37.327Z,2.50
2022-10-08T00:11:13.480Z,2.63
2022-10-08T00:13:43.913Z,2.72
2022-10-08T00:16:17.202Z,2.92
2022-10-08T00:18:52.366Z,3.03
2022-10-08T00:21:25.641Z,2.97
2022-10-08T00:23:56.273Z,2.20
2022-10-08T00:26:37.520Z,1.98
2022-10-08T00:29:09.731Z,1.85
2022-10-08T00:31:47.933Z,1.70
2022-10-08T00:34:21.229Z,2.20
2022-10-08T00:36:57.842Z,2.03
2022-10-08T00:39:31.117Z,2.03
2022-10-08T00:42:02.332Z,1.95
2022-10-08T00:44:59.142Z,1.60
2022-10-08T00:47:40.640Z,1.77
2022-10-08T00:50:17.754Z,2.13
2022-10-08T00:52:58.752Z,2.10
2022-10-08T00:55:29.428Z,2.15
2022-10-08T00:58:04.571Z,2.70
2022-10-08T01:00:36.117Z,2.22
2022-10-08T01:03:06.408Z,2.60
2022-10-08T01:05:52.497Z,2.65
2022-10-08T01:08:35.467Z,2.63
2022-10-08T01:11:14.289Z,2.47
2022-10-08T01:13:55.593Z,2.47
2022-10-08T01:16:35.227Z,2.40
2022-10-08T01:19:23.373Z,3.22
2022-10-08T01:22:09.264Z,2.80
2022-10-08T01:27:44.009Z,2.40
2022-10-08T01:30:18.427Z,2.95
2022-10-08T01:32:56.554Z,2.53
2022-10-08T01:35:33.194Z,2.63
2022-10-08T01:38:07.813Z,2.38
2022-10-08T01:40:43.663Z,2.05
2022-10-08T01:43:18.697Z,2.47
2022-10-08T01:45:54.385Z,2.83
2022-10-08T01:48:31.206Z,2.83
2022-10-08T01:51:04.402Z,2.80
2022-10-08T01:53:41.394Z,2.55
2022-10-08T01:56:18.624Z,2.70
2022-10-08T01:58:56.790Z,2.30
2022-10-08T02:01:36.687Z,3.00
2022-10-08T02:04:23.552Z,2.55
2022-10-08T02:06:57.781Z,2.90
2022-10-08T02:09:44.492Z,3.45
2022-10-08T02:12:14.587Z,2.80
2022-10-08T02:14:50.468Z,2.97
2022-10-08T02:17:35.586Z,2.45
2022-10-08T02:20:19.349Z,2.65
2022-10-08T02:22:59.346Z,2.85
2022-10-08T02:25:35.810Z,3.08
2022-10-08T02:28:13.577Z,3.15
2022-10-08T02:30:54.027Z,2.95
2022-10-08T02:33:33.627Z,2.88
2022-10-08T02:36:10.723Z,3.22
2022-10-08T02:38:46.268Z,3.47
2022-10-08T02:43:51.863Z,3.10
2022-10-08T02:46:31.536Z,3.25
2022-10-08T02:49:08.462Z,3.42
2022-10-08T02:51:43.061Z,3.75
2022-10-08T02:54:12.597Z,3.30
2022-10-08T02:56:48.076Z,3.30
2022-10-08T02:59:19.382Z,3.58
2022-10-08T03:01:55.305Z,3.33
2022-10-08T03:04:29.301Z,3.70
2022-10-08T03:07:00.895Z,3.33
2022-10-08T03:09:37.302Z,3.65
2022-10-08T03:12:08.905Z,2.90
2022-10-08T03:14:42.986Z,3.22
2022-10-08T03:17:17.077Z,3.42
2022-10-08T03:19:45.916Z,3.40
2022-10-08T03:22:15.232Z,3.65
2022-10-08T03:24:43.905Z,3.30
2022-10-08T03:27:15.462Z,3.90
2022-10-08T03:29:49.475Z,3.80
2022-10-08T03:32:22.145Z,3.63
2022-10-08T03:34:50.915Z,4.97
2022-10-08T03:37:21.862Z,4.50
2022-10-08T03:39:50.929Z,4.65
2022-10-08T03:42:20.910Z,4.68
2022-10-08T03:44:50.467Z,5.00
2022-10-08T03:47:23.721Z,5.55
2022-10-08T03:50:04.364Z,5.00
2022-10-08T03:52:34.119Z,5.05
2022-10-08T03:55:02.677Z,5.70
2022-10-08T03:57:31.818Z,5.78
2022-10-08T04:00:02.053Z,6.22
2022-10-08T04:02:33.472Z,6.00
2022-10-08T04:05:04.097Z,5.72
2022-10-08T04:07:34.163Z,6.65
2022-10-08T04:10:05.089Z,6.72
2022-10-08T04:12:36.841Z,6.20
2022-10-08T04:15:07.761Z,6.43
2022-10-08T04:17:38.711Z,6.25
2022-10-08T04:20:08.587Z,6.60
2022-10-08T04:22:38.320Z,5.53
2022-10-08T04:25:07.866Z,5.93
2022-10-08T04:27:37.912Z,5.38
2022-10-08T04:30:09.300Z,5.95
2022-10-08T04:32:40.904Z,5.18
2022-10-08T04:35:12.560Z,5.50
2022-10-08T04:37:42.420Z,5.20
2022-10-08T04:40:12.506Z,4.85
2022-10-08T04:42:42.799Z,5.03
2022-10-08T04:45:13.404Z,4.25
2022-10-08T04:47:45.257Z,3.95
2022-10-08T04:50:14.273Z,3.28
2022-10-08T04:52:47.762Z,3.75
2022-10-08T04:55:19.664Z,3.30
2022-10-08T04:57:49.018Z,3.75
2022-10-08T05:00:22.836Z,3.95
2022-10-08T05:02:53.818Z,3.38
2022-10-08T05:05:25.940Z,4.20
2022-10-08T05:07:56.969Z,4.22
2022-10-08T05:10:28.713Z,3.75
2022-10-08T05:12:58.763Z,3.13
2022-10-08T05:15:27.716Z,2.95
2022-10-08T05:18:08.074Z,3.50
2022-10-08T05:20:40.772Z,3.08
2022-10-08T05:23:11.289Z,2.78
2022-10-08T05:25:40.604Z,2.80
2022-10-08T05:28:11.258Z,2.30
2022-10-08T05:30:40.856Z,2.78
2022-10-08T05:33:10.859Z,2.78
2022-10-08T05:35:40.203Z,3.17
2022-10-08T05:38:08.738Z,3.40
2022-10-08T05:40:37.292Z,2.67
2022-10-08T05:43:08.331Z,2.45
2022-10-08T05:45:40.428Z,2.40
2022-10-08T05:48:36.160Z,2.92
2022-10-08T05:51:10.397Z,3.17
2022-10-08T05:53:47.428Z,3.20
2022-10-08T05:56:21.801Z,2.83
2022-10-08T05:58:54.011Z,2.70
2022-10-08T06:01:26.445Z,2.45
2022-10-08T06:04:04.484Z,2.88
2022-10-08T06:06:38.582Z,2.92
2022-10-08T06:09:10.148Z,2.42
2022-10-08T06:11:41.745Z,2.80
2022-10-08T06:14:14.235Z,2.65
2022-10-08T06:16:43.215Z,2.63
2022-10-08T06:19:14.783Z,2.53
2022-10-08T06:21:46.707Z,2.30
2022-10-08T06:24:16.595Z,2.90
2022-10-08T06:26:48.867Z,3.40
2022-10-08T06:29:22.833Z,2.40
2022-10-08T06:31:57.830Z,2.53
2022-10-08T06:34:29.244Z,1.90
2022-10-08T06:37:00.193Z,2.45
2022-10-08T06:39:31.550Z,3.35
2022-10-08T06:42:00.854Z,2.53
2022-10-08T06:44:29.828Z,2.00
2022-10-08T06:46:59.277Z,2.33
2022-10-08T06:49:29.574Z,3.03
2022-10-08T06:52:02.275Z,2.67
2022-10-08T06:54:32.444Z,2.00
2022-10-08T06:57:03.283Z,2.42
2022-10-08T06:59:33.398Z,2.97
2022-10-08T07:02:06.971Z,3.17
2022-10-08T07:04:38.387Z,2.33
2022-10-08T07:07:07.046Z,2.78
2022-10-08T07:09:37.547Z,2.20
2022-10-08T07:12:06.925Z,2.15
2022-10-08T07:14:36.167Z,1.90
2022-10-08T07:17:09.368Z,2.47
2022-10-08T07:19:42.648Z,3.10
2022-10-08T07:22:11.543Z,2.15
2022-10-08T07:24:41.053Z,1.90
2022-10-08T07:27:10.908Z,3.55
2022-10-08T07:29:39.459Z,3.10
2022-10-08T07:32:10.487Z,2.70
2022-10-08T07:34:42.856Z,2.53
2022-10-08T07:37:11.590Z,3.10
2022-10-08T07:39:41.250Z,2.58
2022-10-08T07:42:10.291Z,2.08
2022-10-08T07:44:38.908Z,2.45
2022-10-08T07:47:09.707Z,2.28
2022-10-08T07:49:41.619Z,2.22
2022-10-08T07:52:15.801Z,2.40
2022-10-08T07:54:45.670Z,2.15
2022-10-08T07:57:14.235Z,2.00
2022-10-08T07:59:43.266Z,2.40
2022-10-08T08:02:13.483Z,2.33
2022-10-08T08:04:43.866Z,2.50
2022-10-08T08:07:12.539Z,2.00
2022-10-08T08:09:42.584Z,1.98
2022-10-08T08:12:12.496Z,2.35
2022-10-08T08:14:44.447Z,2.53
2022-10-08T08:17:13.235Z,2.80
2022-10-08T08:19:44.614Z,2.10
2022-10-08T08:22:27.264Z,1.80
2022-10-08T08:24:56.261Z,2.08
2022-10-08T08:27:30.717Z,2.30
2022-10-08T08:29:59.283Z,1.80
2022-10-08T08:32:33.858Z,1.75
2022-10-08T08:35:07.914Z,1.80
2022-10-08T08:37:36.450Z,1.40
2022-10-08T08:40:11.344Z,2.33
2022-10-08T08:45:47.134Z,1.27
2022-10-08T08:48:20.854Z,1.98
2022-10-08T08:50:58.943Z,1.75
2022-10-08T08:53:30.293Z,1.63
2022-10-08T08:56:10.569Z,1.58
2022-10-08T08:58:44.226Z,1.70
2022-10-08T09:14:47.153Z,2.25
2022-10-08T09:17:19.432Z,1.77
2022-10-08T09:19:49.885Z,1.92
2022-10-08T09:22:26.382Z,2.03
2022-10-08T09:25:00.740Z,1.83
2022-10-08T09:27:54.241Z,1.88
2022-10-08T09:30:45.980Z,2.13
2022-10-08T09:33:26.412Z,2.00
2022-10-08T09:35:56.743Z,1.88
2022-10-08T09:38:30.976Z,2.45
2022-10-08T09:41:10.806Z,1.92
2022-10-08T09:46:48.195Z,1.70
2022-10-08T09:49:36.948Z,1.85
2022-10-08T09:52:17.123Z,1.50
2022-10-08T09:54:50.296Z,1.90
2022-10-08T09:57:38.456Z,2.00
2022-10-08T10:00:36.491Z,2.17
2022-10-08T10:03:25.556Z,1.70
2022-10-08T10:06:01.006Z,1.77
2022-10-08T10:11:41.161Z,2.10
2022-10-08T10:14:27.848Z,1.70
2022-10-08T10:17:06.024Z,1.90
2022-10-08T10:19:53.377Z,1.65
2022-10-08T10:22:30.867Z,1.50
2022-10-08T10:28:16.588Z,1.70
2022-10-08T10:31:04.757Z,1.70
2022-10-08T10:33:41.245Z,1.60
2022-10-08T10:39:52.556Z,1.90
2022-10-08T10:42:50.923Z,1.80
2022-10-08T10:56:14.056Z,2.20
2022-10-08T11:05:51.735Z,1.90
2022-10-08T11:12:01.323Z,1.52
2022-10-08T11:15:34.427Z,1.55
2022-10-08T11:18:26.707Z,2.03
2022-10-08T11:21:21.542Z,2.30
2022-10-08T11:30:29.430Z,1.90
2022-10-08T11:33:17.478Z,1.77
2022-10-08T11:39:39.976Z,2.15
2022-10-08T11:42:17.867Z,1.73
2022-10-08T11:44:47.328Z,2.67
2022-10-08T11:47:51.181Z,1.92
2022-10-08T11:50:34.009Z,1.90
2022-10-08T11:53:24.543Z,1.95
2022-10-08T11:56:04.454Z,1.98
2022-10-08T11:58:35.430Z,1.67
2022-10-08T12:01:06.845Z,2.05
2022-10-08T12:03:39.098Z,1.65
2022-10-08T12:06:21.394Z,1.58
2022-10-08T12:08:57.517Z,1.83
2022-10-08T12:11:52.048Z,2.22
2022-10-08T12:14:49.585Z,2.25
2022-10-08T12:17:20.886Z,2.10
2022-10-08T12:20:22.321Z,1.95
2022-10-08T12:23:08.881Z,1.92
2022-10-08T12:26:12.374Z,2.28
2022-10-08T12:28:53.054Z,1.67
2022-10-08T12:31:39.620Z,1.95
2022-10-08T12:34:19.934Z,1.65
2022-10-08T12:37:04.694Z,2.05
2022-10-08T12:39:43.400Z,1.50
2022-10-08T12:42:20.909Z,2.17
2022-10-08T12:45:16.585Z,1.77
2022-10-08T12:47:53.826Z,2.03
2022-10-08T12:50:47.159Z,2.20
2022-10-08T12:53:18.850Z,2.15
2022-10-08T12:55:51.287Z,1.80
2022-10-08T12:58:23.990Z,2.00
2022-10-08T13:01:03.028Z,2.55
2022-10-08T13:03:35.454Z,1.88
2022-10-08T13:06:23.062Z,2.38
2022-10-08T13:08:53.433Z,2.05
2022-10-08T13:11:23.152Z,1.75
2022-10-08T13:13:53.244Z,1.80
2022-10-08T13:16:26.744Z,2.25
2022-10-08T13:19:00.172Z,3.03
2022-10-08T13:21:40.887Z,1.95
2022-10-08T13:24:38.669Z,2.50
2022-10-08T13:27:22.506Z,2.63
2022-10-08T13:29:51.197Z,1.98
2022-10-08T13:32:27.020Z,2.10
2022-10-08T13:35:01.029Z,2.08
2022-10-08T13:37:38.839Z,1.55
2022-10-08T13:40:21.671Z,2.08
2022-10-08T13:42:52.126Z,2.00
2022-10-08T13:45:26.476Z,2.00
2022-10-08T13:47:59.269Z,2.47
2022-10-08T13:50:28.248Z,2.00
2022-10-08T13:53:01.504Z,2.33
2022-10-08T13:55:35.456Z,2.30
2022-10-08T13:58:06.739Z,1.73
2022-10-08T14:00:40.026Z,2.45
2022-10-08T14:03:25.572Z,1.73
2022-10-08T14:05:54.730Z,2.55
2022-10-08T14:08:31.539Z,2.03
2022-10-08T14:11:01.468Z,1.52
2022-10-08T14:13:31.001Z,1.67
2022-10-08T14:16:00.581Z,1.40
2022-10-08T14:18:30.727Z,2.00
2022-10-08T14:21:01.360Z,2.28
2022-10-08T14:23:33.323Z,1.73
2022-10-08T14:26:02.984Z,1.67
2022-10-08T14:28:32.265Z,1.50
2022-10-08T14:31:04.235Z,1.60
2022-10-08T14:33:35.590Z,1.90
2022-10-08T14:36:17.594Z,4.25
2022-10-08T14:38:46.760Z,1.70
2022-10-08T14:41:18.591Z,1.75
2022-10-08T14:43:48.159Z,2.20
2022-10-08T14:46:21.336Z,1.83
2022-10-08T14:48:51.874Z,2.22
2022-10-08T14:51:20.765Z,1.95
2022-10-08T14:53:50.285Z,1.90
2022-10-08T14:56:20.717Z,2.15
2022-10-08T14:58:51.727Z,2.03
2022-10-08T15:01:20.589Z,1.40
2022-10-08T15:03:53.360Z,1.63
2022-10-08T15:06:22.601Z,1.70
2022-10-08T15:08:53.950Z,1.88
2022-10-08T15:11:24.309Z,1.98
2022-10-08T15:13:56.044Z,1.90
2022-10-08T15:16:24.960Z,1.90
2022-10-08T15:18:54.745Z,2.00
2022-10-08T15:21:23.238Z,2.05
2022-10-08T15:24:01.348Z,1.80
2022-10-08T15:26:32.377Z,2.10
2022-10-08T15:29:02.025Z,2.20
2022-10-08T15:31:31.460Z,1.90
2022-10-08T15:34:16.767Z,1.88
2022-10-08T15:36:47.478Z,2.17
2022-10-08T15:39:21.464Z,1.92
2022-10-08T15:41:53.354Z,2.42
2022-10-08T15:44:26.340Z,1.90
2022-10-08T15:47:03.045Z,1.60
2022-10-08T15:49:35.301Z,2.00
2022-10-08T15:52:15.963Z,2.38
2022-10-08T15:54:48.666Z,7.43
2022-10-08T15:57:19.785Z,3.80
2022-10-08T15:59:48.435Z,2.47
2022-10-08T16:02:24.488Z,2.45
2022-10-08T16:04:54.911Z,1.83
2022-10-08T16:07:24.123Z,2.50
2022-10-08T16:09:53.012Z,1.83
2022-10-08T16:12:29.875Z,2.42
2022-10-08T16:15:00.141Z,2.90
2022-10-08T16:17:29.201Z,2.15
2022-10-08T16:19:59.641Z,2.22
2022-10-08T16:22:35.504Z,4.18
2022-10-08T16:25:05.663Z,2.42
2022-10-08T16:27:35.203Z,2.92
2022-10-08T16:30:04.391Z,2.17
2022-10-08T16:32:33.318Z,2.35
2022-10-08T16:35:03.968Z,2.60
2022-10-08T16:37:32.731Z,2.53
2022-10-08T16:40:04.034Z,4.20
2022-10-08T16:42:33.003Z,2.20
2022-10-08T16:45:05.013Z,2.53
2022-10-08T16:47:36.859Z,2.75
2022-10-08T16:50:08.723Z,2.83
2022-10-08T16:52:37.913Z,2.60
2022-10-08T16:55:07.230Z,2.28
2022-10-08T16:57:36.279Z,2.80
2022-10-08T17:00:06.223Z,2.13
2022-10-08T17:02:35.163Z,7.57
2022-10-08T17:05:10.393Z,4.40
2022-10-08T17:07:38.750Z,2.97
2022-10-08T17:10:11.165Z,2.70
2022-10-08T17:12:40.655Z,2.50
2022-10-08T17:15:14.984Z,2.40
2022-10-08T17:17:51.970Z,2.45
2022-10-08T17:20:29.128Z,2.55
2022-10-08T17:23:01.991Z,3.38
2022-10-08T17:25:31.329Z,2.50
2022-10-08T17:28:00.148Z,2.05
2022-10-08T17:30:28.867Z,3.95
2022-10-08T17:32:57.856Z,7.35
2022-10-08T17:35:28.321Z,3.90
2022-10-08T17:37:59.255Z,2.78
2022-10-08T17:40:31.642Z,2.92
2022-10-08T17:43:00.776Z,3.45
2022-10-08T17:45:33.107Z,3.92
2022-10-08T17:48:01.877Z,2.88
2022-10-08T17:50:43.640Z,2.67
2022-10-08T17:53:17.252Z,3.00
2022-10-08T17:55:46.682Z,3.65
2022-10-08T17:58:16.684Z,4.05
2022-10-08T18:00:48.106Z,3.90
2022-10-08T18:03:17.746Z,5.45
2022-10-08T18:06:07.218Z,4.32
2022-10-08T18:08:37.247Z,4.53
2022-10-08T18:11:11.938Z,3.63
2022-10-08T18:13:41.479Z,5.47
2022-10-08T18:16:16.447Z,6.32
2022-10-08T18:18:51.322Z,3.45
2022-10-08T18:21:25.424Z,5.15
2022-10-08T18:23:56.227Z,4.28
2022-10-08T18:26:34.569Z,4.40
2022-10-08T18:29:15.263Z,4.15
2022-10-08T18:31:46.832Z,5.68
2022-10-08T18:34:26.818Z,4.68
2022-10-08T18:37:03.998Z,4.15
2022-10-08T18:39:33.582Z,3.65
2022-10-08T18:42:06.913Z,4.97
2022-10-08T18:44:36.002Z,4.75
2022-10-08T18:47:11.272Z,3.75
2022-10-08T18:49:41.396Z,4.10
2022-10-08T18:52:17.957Z,4.00
2022-10-08T18:55:01.904Z,4.40
2022-10-08T18:57:33.963Z,4.00
2022-10-08T19:02:44.089Z,3.75
2022-10-08T19:05:21.807Z,3.95
2022-10-08T19:07:59.137Z,3.90
2022-10-08T19:10:36.378Z,3.72
2022-10-08T19:13:10.897Z,3.97
2022-10-08T19:15:52.922Z,4.22
2022-10-08T19:18:25.372Z,5.63
2022-10-08T19:21:03.081Z,3.88
2022-10-08T19:23:38.328Z,3.47
2022-10-08T19:26:12.735Z,2.92
2022-10-08T19:28:52.898Z,4.00
2022-10-08T19:31:33.136Z,3.80
2022-10-08T19:34:08.819Z,3.67
2022-10-08T19:36:44.920Z,4.40
2022-10-08T19:39:22.869Z,4.03
2022-10-08T19:41:55.046Z,3.88
2022-10-08T19:44:31.011Z,3.88
2022-10-08T19:47:11.968Z,4.07
2022-10-08T19:49:42.696Z,3.65
2022-10-08T19:52:14.962Z,3.13
2022-10-08T19:54:45.879Z,3.45
2022-10-08T19:57:15.616Z,4.18
2022-10-08T19:59:44.714Z,3.85
2022-10-08T20:02:15.193Z,5.68
2022-10-08T20:04:49.223Z,3.83
2022-10-08T20:07:20.074Z,5.15
2022-10-08T20:09:56.216Z,4.43
2022-10-08T20:12:40.094Z,4.30
2022-10-08T20:15:11.539Z,4.70
2022-10-08T20:17:43.220Z,6.82
2022-10-08T20:20:31.693Z,4.30
2022-10-08T20:23:00.913Z,4.63
2022-10-08T20:25:32.055Z,6.70
2022-10-08T20:28:01.121Z,4.45
2022-10-08T20:30:30.376Z,4.05
2022-10-08T20:32:59.086Z,3.47
2022-10-08T20:35:29.999Z,4.43
2022-10-08T20:38:01.005Z,3.83
2022-10-08T20:40:31.593Z,3.50
2022-10-08T20:43:01.753Z,4.35
2022-10-08T20:45:31.377Z,4.18
2022-10-08T20:48:01.509Z,4.63
2022-10-08T20:50:31.774Z,4.45
2022-10-08T20:53:00.311Z,4.35
2022-10-08T20:55:31.238Z,4.18
2022-10-08T20:58:00.683Z,4.40
2022-10-08T21:00:30.453Z,6.28
2022-10-08T21:03:00.474Z,4.95
2022-10-08T21:05:31.241Z,4.10
2022-10-08T21:08:02.961Z,5.47
2022-10-08T21:10:38.984Z,6.00
2022-10-08T21:13:08.475Z,5.75
2022-10-08T21:15:37.462Z,4.93
2022-10-08T21:18:06.789Z,5.00
2022-10-08T21:20:39.270Z,4.22
2022-10-08T21:23:11.408Z,4.90
2022-10-08T21:25:42.595Z,4.30
2022-10-08T21:28:13.819Z,4.75
2022-10-08T21:30:44.142Z,5.65
2022-10-08T21:33:13.130Z,5.05
2022-10-08T21:35:41.818Z,5.40
2022-10-08T21:38:12.121Z,5.40
2022-10-08T21:40:46.950Z,4.85
2022-10-08T21:43:17.582Z,5.95
2022-10-08T21:45:56.878Z,5.32
2022-10-08T21:48:33.284Z,19.30
2022-10-08T21:51:05.382Z,9.38
2022-10-08T21:53:37.371Z,7.60
2022-10-08T21:56:17.728Z,8.57
2022-10-08T21:58:50.173Z,8.55
2022-10-08T22:01:25.901Z,8.38
2022-10-08T22:03:56.244Z,6.75
2022-10-08T22:06:26.849Z,8.02
2022-10-08T22:08:56.484Z,6.97
2022-10-08T22:11:28.093Z,7.65
2022-10-08T22:13:57.403Z,8.48
2022-10-08T22:16:29.970Z,11.90
2022-10-08T22:19:00.309Z,11.90
2022-10-08T22:21:29.681Z,13.48
2022-10-08T22:23:58.985Z,16.95
2022-10-08T22:26:32.965Z,18.98
2022-10-08T22:29:03.383Z,18.38
2022-10-08T22:31:35.412Z,18.52
2022-10-08T22:34:04.597Z,17.80
2022-10-08T22:36:38.657Z,16.35
2022-10-08T22:39:10.005Z,11.13
2022-10-08T22:41:40.689Z,11.20
2022-10-08T22:44:09.872Z,9.02
2022-10-08T22:46:41.477Z,8.80
2022-10-08T22:49:14.121Z,8.63
2022-10-08T22:51:46.918Z,8.98
2022-10-08T22:54:17.884Z,9.93
2022-10-08T22:56:50.404Z,8.05
2022-10-08T22:59:29.272Z,7.32
2022-10-08T23:01:59.387Z,7.20
2022-10-08T23:04:28.453Z,8.40
2022-10-08T23:06:57.045Z,7.18
2022-10-08T23:09:26.118Z,7.10
2022-10-08T23:11:57.424Z,7.53
2022-10-08T23:14:26.943Z,6.53
2022-10-08T23:16:58.535Z,6.95
2022-10-08T23:19:29.882Z,7.55
2022-10-08T23:22:02.141Z,8.00
2022-10-08T23:24:31.390Z,7.57
2022-10-08T23:27:01.804Z,7.40
2022-10-08T23:29:30.774Z,6.22
2022-10-08T23:31:59.921Z,7.13
2022-10-08T23:34:28.528Z,6.82
2022-10-08T23:36:57.790Z,6.90
2022-10-08T23:39:26.932Z,6.75
2022-10-08T23:41:56.134Z,6.07
2022-10-08T23:44:26.547Z,6.70
2022-10-08T23:46:56.774Z,7.50
2022-10-08T23:49:27.617Z,6.95
2022-10-08T23:51:58.459Z,6.88
2022-10-08T23:54:28.262Z,6.47
2022-10-08T23:56:57.309Z,6.50
2022-10-08T23:59:29.871Z,5.88
